sensor_id;sensor_type;location;lat;lon;timestamp;temperature;humidity
296;DHT22;132;48.770;9.200;2024-01-15T00:01:49;-0.50;1.00
296;DHT22;132;48.770;9.200;2024-01-15T00:04:40;-0.40;1.00
296;DHT22;132;48.770;9.200;2024-01-15T00:07:27;-0.40;1.00
296;DHT22;132;48.770;9.200;2024-01-15T00:10:13;-0.40;1.00
296;DHT22;132;48.770;9.200;2024-01-15T00:16:12;-0.50;1.00
296;DHT22;132;48.770;9.200;2024-01-15T00:21:54;-0.60;1.00
296;DHT22;132;48.770;9.200;2024-01-15T00:24:41;0.00;1.00
296;DHT22;132;48.770;9.200;2024-01-15T00:27:28;-0.20;1.00
296;DHT22;132;48.770;9.200;2024-01-15T00:30:14;-0.60;1.00
296;DHT22;132;48.770;9.200;2024-01-15T00:33:01;-0.70;1.00
296;DHT22;132;48.770;9.200;2024-01-15T00:35:48;-0.70;1.00
296;DHT22;132;48.770;9.200;2024-01-15T00:38:34;-0.70;1.00
296;DHT22;132;48.770;9.200;2024-01-15T00:41:21;-0.70;1.00
296;DHT22;132;48.770;9.200;2024-01-15T00:44:07;-0.70;1.00
296;DHT22;132;48.770;9.200;2024-01-15T00:46:54;-0.70;1.00
296;DHT22;132;48.770;9.200;2024-01-15T00:49:41;-0.70;1.00
296;DHT22;132;48.770;9.200;2024-01-15T00:52:28;-0.80;1.00
296;DHT22;132;48.770;9.200;2024-01-15T00:55:14;-0.80;1.00
296;DHT22;132;48.770;9.200;2024-01-15T00:58:01;-0.80;1.00
296;DHT22;132;48.770;9.200;2024-01-15T01:00:48;-0.80;1.00
296;DHT22;132;48.770;9.200;2024-01-15T01:03:34;-0.80;1.00
296;DHT22;132;48.770;9.200;2024-01-15T01:06:21;-0.80;1.00
296;DHT22;132;48.770;9.200;2024-01-15T01:09:08;-0.80;1.00
296;DHT22;132;48.770;9.200;2024-01-15T01:11:54;-0.80;1.00
296;DHT22;132;48.770;9.200;2024-01-15T01:14:41;-0.70;1.00
296;DHT22;132;48.770;9.200;2024-01-15T01:17:28;-0.70;1.00
296;DHT22;132;48.770;9.200;2024-01-15T01:20:15;-0.70;1.00
296;DHT22;132;48.770;9.200;2024-01-15T01:23:01;-0.70;1.00
296;DHT22;132;48.770;9.200;2024-01-15T01:25:49;-0.60;1.00
296;DHT22;132;48.770;9.200;2024-01-15T01:28:36;-0.60;1.00
296;DHT22;132;48.770;9.200;2024-01-15T01:31:23;-0.60;1.00
296;DHT22;132;48.770;9.200;2024-01-15T01:34:10;-0.50;1.00
296;DHT22;132;48.770;9.200;2024-01-15T01:36:57;-0.50;1.00
296;DHT22;132;48.770;9.200;2024-01-15T01:39:44;-0.50;1.00
296;DHT22;132;48.770;9.200;2024-01-15T01:42:31;-0.50;1.00
296;DHT22;132;48.770;9.200;2024-01-15T01:48:13;-0.40;1.00
296;DHT22;132;48.770;9.200;2024-01-15T01:51:02;-0.40;1.00
296;DHT22;132;48.770;9.200;2024-01-15T01:53:50;-0.30;1.00
296;DHT22;132;48.770;9.200;2024-01-15T01:56:37;-0.30;1.00
296;DHT22;132;48.770;9.200;2024-01-15T01:59:27;-0.30;1.00
296;DHT22;132;48.770;9.200;2024-01-15T02:02:14;-0.30;1.00
296;DHT22;132;48.770;9.200;2024-01-15T02:05:03;-0.30;1.00
296;DHT22;132;48.770;9.200;2024-01-15T02:07:50;-0.40;1.00
296;DHT22;132;48.770;9.200;2024-01-15T02:10:37;-0.30;1.00
296;DHT22;132;48.770;9.200;2024-01-15T02:19:23;-0.20;1.00
296;DHT22;132;48.770;9.200;2024-01-15T02:27:55;-0.20;1.00
296;DHT22;132;48.770;9.200;2024-01-15T02:30:43;0.30;1.00
296;DHT22;132;48.770;9.200;2024-01-15T02:33:30;-0.20;1.00
296;DHT22;132;48.770;9.200;2024-01-15T02:36:16;-0.30;1.00
296;DHT22;132;48.770;9.200;2024-01-15T02:39:03;-0.30;1.00
296;DHT22;132;48.770;9.200;2024-01-15T02:41:49;-0.30;1.00
296;DHT22;132;48.770;9.200;2024-01-15T02:44:36;-0.40;1.00
296;DHT22;132;48.770;9.200;2024-01-15T02:47:23;-0.40;1.00
296;DHT22;132;48.770;9.200;2024-01-15T02:50:09;-0.40;1.00
296;DHT22;132;48.770;9.200;2024-01-15T02:52:56;-0.40;1.00
296;DHT22;132;48.770;9.200;2024-01-15T02:55:42;-0.40;1.00
296;DHT22;132;48.770;9.200;2024-01-15T02:58:29;-0.50;1.00
296;DHT22;132;48.770;9.200;2024-01-15T03:01:18;-0.50;1.00
296;DHT22;132;48.770;9.200;2024-01-15T03:04:06;-0.50;1.00
296;DHT22;132;48.770;9.200;2024-01-15T03:06:52;-0.50;1.00
296;DHT22;132;48.770;9.200;2024-01-15T03:09:39;-0.50;1.00
296;DHT22;132;48.770;9.200;2024-01-15T03:12:26;-0.60;1.00
296;DHT22;132;48.770;9.200;2024-01-15T03:15:12;-0.60;1.00
296;DHT22;132;48.770;9.200;2024-01-15T03:17:59;-0.60;1.00
296;DHT22;132;48.770;9.200;2024-01-15T03:20:45;-0.60;1.00
296;DHT22;132;48.770;9.200;2024-01-15T03:23:32;-0.50;1.00
296;DHT22;132;48.770;9.200;2024-01-15T03:26:19;-0.50;1.00
296;DHT22;132;48.770;9.200;2024-01-15T03:29:05;-0.50;1.00
296;DHT22;132;48.770;9.200;2024-01-15T03:31:53;-0.50;1.00
296;DHT22;132;48.770;9.200;2024-01-15T03:34:40;-0.50;1.00
296;DHT22;132;48.770;9.200;2024-01-15T03:37:26;-0.50;1.00
296;DHT22;132;48.770;9.200;2024-01-15T03:43:03;-0.60;1.00
296;DHT22;132;48.770;9.200;2024-01-15T03:49:15;-0.60;1.00
296;DHT22;132;48.770;9.200;2024-01-15T03:52:02;-0.70;1.00
296;DHT22;132;48.770;9.200;2024-01-15T03:54:49;-0.60;1.00
296;DHT22;132;48.770;9.200;2024-01-15T03:57:36;-0.60;1.00
296;DHT22;132;48.770;9.200;2024-01-15T04:00:23;-0.60;1.00
296;DHT22;132;48.770;9.200;2024-01-15T04:03:09;-0.60;1.00
296;DHT22;132;48.770;9.200;2024-01-15T04:05:56;-0.60;1.00
296;DHT22;132;48.770;9.200;2024-01-15T04:08:43;-0.50;1.00
296;DHT22;132;48.770;9.200;2024-01-15T04:11:30;-0.50;1.00
296;DHT22;132;48.770;9.200;2024-01-15T04:14:16;-0.40;1.00
296;DHT22;132;48.770;9.200;2024-01-15T04:17:03;-0.50;1.00
296;DHT22;132;48.770;9.200;2024-01-15T04:19:50;-0.40;1.00
296;DHT22;132;48.770;9.200;2024-01-15T04:22:37;-0.40;1.00
296;DHT22;132;48.770;9.200;2024-01-15T04:25:23;-0.40;1.00
296;DHT22;132;48.770;9.200;2024-01-15T04:28:10;-0.20;1.00
296;DHT22;132;48.770;9.200;2024-01-15T04:30:56;-0.20;1.00
296;DHT22;132;48.770;9.200;2024-01-15T04:33:43;-0.20;1.00
296;DHT22;132;48.770;9.200;2024-01-15T04:36:30;-0.20;1.00
296;DHT22;132;48.770;9.200;2024-01-15T04:39:16;-0.10;1.00
296;DHT22;132;48.770;9.200;2024-01-15T04:42:03;0.00;1.00
296;DHT22;132;48.770;9.200;2024-01-15T04:51:12;0.10;1.00
296;DHT22;132;48.770;9.200;2024-01-15T04:53:59;0.60;1.00
296;DHT22;132;48.770;9.200;2024-01-15T04:56:45;0.40;1.00
296;DHT22;132;48.770;9.200;2024-01-15T04:59:32;0.20;1.00
296;DHT22;132;48.770;9.200;2024-01-15T05:02:19;0.30;1.00
296;DHT22;132;48.770;9.200;2024-01-15T05:05:06;0.30;1.00
296;DHT22;132;48.770;9.200;2024-01-15T05:07:52;0.30;1.00
296;DHT22;132;48.770;9.200;2024-01-15T05:10:39;0.30;1.00
296;DHT22;132;48.770;9.200;2024-01-15T05:13:26;0.30;1.00
296;DHT22;132;48.770;9.200;2024-01-15T05:16:12;0.40;1.00
296;DHT22;132;48.770;9.200;2024-01-15T05:18:59;0.40;1.00
296;DHT22;132;48.770;9.200;2024-01-15T05:21:46;0.80;1.00
296;DHT22;132;48.770;9.200;2024-01-15T05:24:32;0.30;1.00
296;DHT22;132;48.770;9.200;2024-01-15T05:27:19;0.30;1.00
296;DHT22;132;48.770;9.200;2024-01-15T05:30:06;0.40;1.00
296;DHT22;132;48.770;9.200;2024-01-15T05:32:52;0.40;1.00
296;DHT22;132;48.770;9.200;2024-01-15T05:35:39;0.40;1.00
296;DHT22;132;48.770;9.200;2024-01-15T05:38:27;0.40;1.00
296;DHT22;132;48.770;9.200;2024-01-15T05:41:14;0.40;1.00
296;DHT22;132;48.770;9.200;2024-01-15T05:44:00;0.40;1.00
296;DHT22;132;48.770;9.200;2024-01-15T05:46:47;0.40;1.00
296;DHT22;132;48.770;9.200;2024-01-15T05:49:33;0.40;1.00
296;DHT22;132;48.770;9.200;2024-01-15T05:52:20;0.40;1.00
296;DHT22;132;48.770;9.200;2024-01-15T05:55:08;0.40;1.00
296;DHT22;132;48.770;9.200;2024-01-15T05:57:56;0.40;1.00
296;DHT22;132;48.770;9.200;2024-01-15T06:00:42;0.40;1.00
296;DHT22;132;48.770;9.200;2024-01-15T06:03:29;0.40;1.00
296;DHT22;132;48.770;9.200;2024-01-15T06:06:16;0.40;1.00
296;DHT22;132;48.770;9.200;2024-01-15T06:09:02;0.40;1.00
296;DHT22;132;48.770;9.200;2024-01-15T06:14:55;0.40;1.00
296;DHT22;132;48.770;9.200;2024-01-15T06:17:41;0.60;1.00
296;DHT22;132;48.770;9.200;2024-01-15T06:20:28;0.40;1.00
296;DHT22;132;48.770;9.200;2024-01-15T06:23:15;0.50;1.00
296;DHT22;132;48.770;9.200;2024-01-15T06:26:01;0.50;1.00
296;DHT22;132;48.770;9.200;2024-01-15T06:28:50;0.50;1.00
296;DHT22;132;48.770;9.200;2024-01-15T06:31:36;0.50;1.00
296;DHT22;132;48.770;9.200;2024-01-15T06:34:23;0.50;1.00
296;DHT22;132;48.770;9.200;2024-01-15T06:45:58;0.40;1.00
296;DHT22;132;48.770;9.200;2024-01-15T06:48:45;0.40;1.00
296;DHT22;132;48.770;9.200;2024-01-15T06:51:31;0.40;1.00
296;DHT22;132;48.770;9.200;2024-01-15T06:54:18;0.40;1.00
296;DHT22;132;48.770;9.200;2024-01-15T06:57:05;0.40;1.00
296;DHT22;132;48.770;9.200;2024-01-15T06:59:53;0.40;1.00
296;DHT22;132;48.770;9.200;2024-01-15T07:02:39;0.40;1.00
296;DHT22;132;48.770;9.200;2024-01-15T07:05:26;0.40;1.00
296;DHT22;132;48.770;9.200;2024-01-15T07:08:12;0.50;1.00
296;DHT22;132;48.770;9.200;2024-01-15T07:10:59;0.50;1.00
296;DHT22;132;48.770;9.200;2024-01-15T07:13:46;0.50;1.00
296;DHT22;132;48.770;9.200;2024-01-15T07:16:32;0.60;1.00
296;DHT22;132;48.770;9.200;2024-01-15T07:19:19;0.60;1.00
296;DHT22;132;48.770;9.200;2024-01-15T07:22:06;0.60;1.00
296;DHT22;132;48.770;9.200;2024-01-15T07:24:53;0.60;1.00
296;DHT22;132;48.770;9.200;2024-01-15T07:27:39;0.60;1.00
296;DHT22;132;48.770;9.200;2024-01-15T07:30:29;0.60;1.00
296;DHT22;132;48.770;9.200;2024-01-15T07:33:15;0.60;1.00
296;DHT22;132;48.770;9.200;2024-01-15T07:36:02;0.70;1.00
296;DHT22;132;48.770;9.200;2024-01-15T07:38:49;0.70;1.00
296;DHT22;132;48.770;9.200;2024-01-15T07:44:25;0.70;1.00
296;DHT22;132;48.770;9.200;2024-01-15T07:47:11;0.70;1.00
296;DHT22;132;48.770;9.200;2024-01-15T07:49:58;0.70;1.00
296;DHT22;132;48.770;9.200;2024-01-15T07:52:45;0.70;1.00
296;DHT22;132;48.770;9.200;2024-01-15T08:01:04;0.80;1.00
296;DHT22;132;48.770;9.200;2024-01-15T08:03:51;0.90;1.00
296;DHT22;132;48.770;9.200;2024-01-15T08:06:39;0.90;1.00
296;DHT22;132;48.770;9.200;2024-01-15T08:09:25;0.90;1.00
296;DHT22;132;48.770;9.200;2024-01-15T08:12:12;0.90;1.00
296;DHT22;132;48.770;9.200;2024-01-15T08:14:59;0.90;1.00
296;DHT22;132;48.770;9.200;2024-01-15T08:17:45;0.90;1.00
296;DHT22;132;48.770;9.200;2024-01-15T08:20:32;1.00;1.00
296;DHT22;132;48.770;9.200;2024-01-15T08:23:19;1.00;1.00
296;DHT22;132;48.770;9.200;2024-01-15T08:26:06;1.00;1.00
296;DHT22;132;48.770;9.200;2024-01-15T08:28:52;1.00;1.00
296;DHT22;132;48.770;9.200;2024-01-15T08:31:39;1.00;1.00
296;DHT22;132;48.770;9.200;2024-01-15T08:34:26;1.00;1.00
296;DHT22;132;48.770;9.200;2024-01-15T08:37:12;1.00;1.00
296;DHT22;132;48.770;9.200;2024-01-15T08:39:59;1.00;1.00
296;DHT22;132;48.770;9.200;2024-01-15T08:42:46;1.10;1.00
296;DHT22;132;48.770;9.200;2024-01-15T08:45:32;1.20;1.00
296;DHT22;132;48.770;9.200;2024-01-15T08:48:19;1.20;1.00
296;DHT22;132;48.770;9.200;2024-01-15T08:51:06;1.30;1.00
296;DHT22;132;48.770;9.200;2024-01-15T08:53:56;1.30;1.00
296;DHT22;132;48.770;9.200;2024-01-15T08:56:42;1.30;1.00
296;DHT22;132;48.770;9.200;2024-01-15T08:59:29;1.40;1.00
296;DHT22;132;48.770;9.200;2024-01-15T09:02:16;1.40;1.00
296;DHT22;132;48.770;9.200;2024-01-15T09:05:02;1.40;1.00
296;DHT22;132;48.770;9.200;2024-01-15T09:07:50;1.50;1.00
296;DHT22;132;48.770;9.200;2024-01-15T09:10:38;1.50;1.00
296;DHT22;132;48.770;9.200;2024-01-15T09:13:25;2.10;1.00
296;DHT22;132;48.770;9.200;2024-01-15T09:16:11;1.60;1.00
296;DHT22;132;48.770;9.200;2024-01-15T09:18:58;1.60;1.00
296;DHT22;132;48.770;9.200;2024-01-15T09:21:45;1.70;1.00
296;DHT22;132;48.770;9.200;2024-01-15T09:24:32;1.70;1.00
296;DHT22;132;48.770;9.200;2024-01-15T09:27:18;1.70;1.00
296;DHT22;132;48.770;9.200;2024-01-15T09:30:06;1.70;1.00
296;DHT22;132;48.770;9.200;2024-01-15T09:32:52;1.80;1.00
296;DHT22;132;48.770;9.200;2024-01-15T09:35:39;1.80;1.00
296;DHT22;132;48.770;9.200;2024-01-15T09:38:26;1.80;1.00
296;DHT22;132;48.770;9.200;2024-01-15T09:41:13;1.80;1.00
296;DHT22;132;48.770;9.200;2024-01-15T09:44:00;1.90;1.00
296;DHT22;132;48.770;9.200;2024-01-15T09:46:47;1.90;1.00
296;DHT22;132;48.770;9.200;2024-01-15T09:49:36;2.00;1.00
296;DHT22;132;48.770;9.200;2024-01-15T09:52:25;2.00;1.00
296;DHT22;132;48.770;9.200;2024-01-15T09:55:13;2.00;1.00
296;DHT22;132;48.770;9.200;2024-01-15T09:58:02;2.00;1.00
296;DHT22;132;48.770;9.200;2024-01-15T10:00:49;2.10;1.00
296;DHT22;132;48.770;9.200;2024-01-15T10:03:37;2.10;1.00
296;DHT22;132;48.770;9.200;2024-01-15T10:06:27;2.10;1.00
296;DHT22;132;48.770;9.200;2024-01-15T10:09:17;2.10;1.00
296;DHT22;132;48.770;9.200;2024-01-15T10:12:04;2.20;1.00
296;DHT22;132;48.770;9.200;2024-01-15T10:14:51;2.10;1.00
296;DHT22;132;48.770;9.200;2024-01-15T10:17:38;2.10;1.00
296;DHT22;132;48.770;9.200;2024-01-15T10:20:25;2.60;1.00
296;DHT22;132;48.770;9.200;2024-01-15T10:23:12;2.10;1.00
296;DHT22;132;48.770;9.200;2024-01-15T10:25:58;2.10;1.00
296;DHT22;132;48.770;9.200;2024-01-15T10:28:45;2.20;1.00
296;DHT22;132;48.770;9.200;2024-01-15T10:31:31;2.20;1.00
296;DHT22;132;48.770;9.200;2024-01-15T10:34:19;2.20;1.00
296;DHT22;132;48.770;9.200;2024-01-15T10:37:09;2.20;1.00
296;DHT22;132;48.770;9.200;2024-01-15T10:39:56;2.20;1.00
296;DHT22;132;48.770;9.200;2024-01-15T10:42:42;2.20;1.00
296;DHT22;132;48.770;9.200;2024-01-15T10:45:29;2.20;1.00
296;DHT22;132;48.770;9.200;2024-01-15T10:48:17;2.50;1.00
296;DHT22;132;48.770;9.200;2024-01-15T10:51:04;2.20;1.00
296;DHT22;132;48.770;9.200;2024-01-15T10:53:57;2.20;1.00
296;DHT22;132;48.770;9.200;2024-01-15T10:56:46;2.20;1.00
296;DHT22;132;48.770;9.200;2024-01-15T10:59:33;2.20;1.00
296;DHT22;132;48.770;9.200;2024-01-15T11:02:20;2.30;1.00
296;DHT22;132;48.770;9.200;2024-01-15T11:05:07;2.40;1.00
296;DHT22;132;48.770;9.200;2024-01-15T11:07:55;2.40;1.00
296;DHT22;132;48.770;9.200;2024-01-15T11:10:46;2.50;1.00
296;DHT22;132;48.770;9.200;2024-01-15T11:16:20;2.50;1.00
296;DHT22;132;48.770;9.200;2024-01-15T11:19:06;2.40;1.00
296;DHT22;132;48.770;9.200;2024-01-15T11:21:54;2.90;1.00
296;DHT22;132;48.770;9.200;2024-01-15T11:24:42;2.30;1.00
296;DHT22;132;48.770;9.200;2024-01-15T11:27:45;2.30;1.00
296;DHT22;132;48.770;9.200;2024-01-15T11:30:34;2.30;1.00
296;DHT22;132;48.770;9.200;2024-01-15T11:33:49;2.30;1.00
296;DHT22;132;48.770;9.200;2024-01-15T11:42:22;3.10;1.00
296;DHT22;132;48.770;9.200;2024-01-15T11:45:09;2.20;1.00
296;DHT22;132;48.770;9.200;2024-01-15T11:50:59;2.10;1.00
296;DHT22;132;48.770;9.200;2024-01-15T11:53:48;2.00;1.00
296;DHT22;132;48.770;9.200;2024-01-15T11:56:37;1.90;1.00
296;DHT22;132;48.770;9.200;2024-01-15T11:59:24;2.60;1.00
296;DHT22;132;48.770;9.200;2024-01-15T12:02:11;1.80;1.00
296;DHT22;132;48.770;9.200;2024-01-15T12:04:59;1.80;1.00
296;DHT22;132;48.770;9.200;2024-01-15T12:07:47;1.80;1.00
296;DHT22;132;48.770;9.200;2024-01-15T12:10:34;1.80;1.00
296;DHT22;132;48.770;9.200;2024-01-15T12:13:21;1.80;1.00
296;DHT22;132;48.770;9.200;2024-01-15T12:16:08;1.80;1.00
296;DHT22;132;48.770;9.200;2024-01-15T12:18:54;1.80;1.00
296;DHT22;132;48.770;9.200;2024-01-15T12:21:41;2.10;1.00
296;DHT22;132;48.770;9.200;2024-01-15T12:24:28;1.70;1.00
296;DHT22;132;48.770;9.200;2024-01-15T12:27:14;1.60;1.00
296;DHT22;132;48.770;9.200;2024-01-15T12:30:01;1.50;1.00
296;DHT22;132;48.770;9.200;2024-01-15T12:32:48;1.30;1.00
296;DHT22;132;48.770;9.200;2024-01-15T12:35:36;1.30;1.00
296;DHT22;132;48.770;9.200;2024-01-15T12:38:22;1.20;1.00
296;DHT22;132;48.770;9.200;2024-01-15T12:41:09;1.10;1.00
296;DHT22;132;48.770;9.200;2024-01-15T12:43:56;1.10;1.00
296;DHT22;132;48.770;9.200;2024-01-15T12:46:43;1.10;1.00
296;DHT22;132;48.770;9.200;2024-01-15T12:49:29;1.00;1.00
296;DHT22;132;48.770;9.200;2024-01-15T12:52:19;1.00;1.00
296;DHT22;132;48.770;9.200;2024-01-15T12:55:07;0.90;1.00
296;DHT22;132;48.770;9.200;2024-01-15T12:57:54;0.90;1.00
296;DHT22;132;48.770;9.200;2024-01-15T13:00:41;1.00;1.00
296;DHT22;132;48.770;9.200;2024-01-15T13:03:27;1.00;1.00
296;DHT22;132;48.770;9.200;2024-01-15T13:06:14;1.10;1.00
296;DHT22;132;48.770;9.200;2024-01-15T13:09:01;1.10;1.00
296;DHT22;132;48.770;9.200;2024-01-15T13:11:48;1.20;1.00
296;DHT22;132;48.770;9.200;2024-01-15T13:14:35;1.20;1.00
296;DHT22;132;48.770;9.200;2024-01-15T13:17:22;1.30;1.00
296;DHT22;132;48.770;9.200;2024-01-15T13:20:09;1.30;1.00
296;DHT22;132;48.770;9.200;2024-01-15T13:22:57;1.40;1.00
296;DHT22;132;48.770;9.200;2024-01-15T13:25:44;1.30;1.00
296;DHT22;132;48.770;9.200;2024-01-15T13:28:30;1.30;1.00
296;DHT22;132;48.770;9.200;2024-01-15T13:31:17;1.30;1.00
296;DHT22;132;48.770;9.200;2024-01-15T13:34:04;1.90;1.00
296;DHT22;132;48.770;9.200;2024-01-15T13:36:51;1.30;1.00
296;DHT22;132;48.770;9.200;2024-01-15T13:39:37;1.20;1.00
296;DHT22;132;48.770;9.200;2024-01-15T13:42:24;1.20;1.00
296;DHT22;132;48.770;9.200;2024-01-15T13:45:13;1.20;1.00
296;DHT22;132;48.770;9.200;2024-01-15T13:48:01;1.20;1.00
296;DHT22;132;48.770;9.200;2024-01-15T13:50:47;1.40;1.00
296;DHT22;132;48.770;9.200;2024-01-15T13:53:34;1.20;1.00
296;DHT22;132;48.770;9.200;2024-01-15T13:56:21;1.20;1.00
296;DHT22;132;48.770;9.200;2024-01-15T13:59:07;1.30;1.00
296;DHT22;132;48.770;9.200;2024-01-15T14:01:55;1.30;1.00
296;DHT22;132;48.770;9.200;2024-01-15T14:10:33;1.30;1.00
296;DHT22;132;48.770;9.200;2024-01-15T14:13:20;2.10;1.00
296;DHT22;132;48.770;9.200;2024-01-15T14:16:07;1.30;1.00
296;DHT22;132;48.770;9.200;2024-01-15T14:18:53;1.30;1.00
296;DHT22;132;48.770;9.200;2024-01-15T14:21:40;1.30;1.00
296;DHT22;132;48.770;9.200;2024-01-15T14:24:27;1.30;1.00
296;DHT22;132;48.770;9.200;2024-01-15T14:30:09;1.30;1.00
296;DHT22;132;48.770;9.200;2024-01-15T14:32:56;1.30;1.00
296;DHT22;132;48.770;9.200;2024-01-15T14:35:43;1.30;1.00
296;DHT22;132;48.770;9.200;2024-01-15T14:38:29;1.30;1.00
296;DHT22;132;48.770;9.200;2024-01-15T14:41:16;1.30;1.00
296;DHT22;132;48.770;9.200;2024-01-15T14:44:05;1.30;1.00
296;DHT22;132;48.770;9.200;2024-01-15T14:46:52;1.20;1.00
296;DHT22;132;48.770;9.200;2024-01-15T14:49:39;1.30;1.00
296;DHT22;132;48.770;9.200;2024-01-15T14:52:25;1.20;1.00
296;DHT22;132;48.770;9.200;2024-01-15T15:06:28;1.20;1.00
296;DHT22;132;48.770;9.200;2024-01-15T15:09:16;2.30;1.00
296;DHT22;132;48.770;9.200;2024-01-15T15:12:03;1.20;1.00
296;DHT22;132;48.770;9.200;2024-01-15T15:14:51;1.20;1.00
296;DHT22;132;48.770;9.200;2024-01-15T15:17:38;0.40;1.00
296;DHT22;132;48.770;9.200;2024-01-15T15:20:25;0.70;1.00
296;DHT22;132;48.770;9.200;2024-01-15T15:25:54;1.00;1.00
296;DHT22;132;48.770;9.200;2024-01-15T15:28:41;1.30;1.00
296;DHT22;132;48.770;9.200;2024-01-15T15:31:28;1.10;1.00
296;DHT22;132;48.770;9.200;2024-01-15T15:34:14;1.10;1.00
296;DHT22;132;48.770;9.200;2024-01-15T15:39:51;1.10;1.00
296;DHT22;132;48.770;9.200;2024-01-15T15:42:38;0.60;1.00
296;DHT22;132;48.770;9.200;2024-01-15T15:45:25;1.00;1.00
296;DHT22;132;48.770;9.200;2024-01-15T15:48:12;1.00;1.00
296;DHT22;132;48.770;9.200;2024-01-15T15:50:58;1.00;1.00
296;DHT22;132;48.770;9.200;2024-01-15T15:53:46;1.00;1.00
296;DHT22;132;48.770;9.200;2024-01-15T15:56:35;0.90;1.00
296;DHT22;132;48.770;9.200;2024-01-15T15:59:24;1.00;1.00
296;DHT22;132;48.770;9.200;2024-01-15T16:02:11;0.90;1.00
296;DHT22;132;48.770;9.200;2024-01-15T16:04:58;0.90;1.00
296;DHT22;132;48.770;9.200;2024-01-15T16:07:44;0.90;1.00
296;DHT22;132;48.770;9.200;2024-01-15T16:10:31;1.00;1.00
296;DHT22;132;48.770;9.200;2024-01-15T16:13:18;1.50;1.00
296;DHT22;132;48.770;9.200;2024-01-15T16:16:05;1.00;1.00
296;DHT22;132;48.770;9.200;2024-01-15T16:18:52;0.90;1.00
296;DHT22;132;48.770;9.200;2024-01-15T16:21:39;0.90;1.00
296;DHT22;132;48.770;9.200;2024-01-15T16:24:25;0.90;1.00
296;DHT22;132;48.770;9.200;2024-01-15T16:27:12;0.80;1.00
296;DHT22;132;48.770;9.200;2024-01-15T16:29:59;0.90;1.00
296;DHT22;132;48.770;9.200;2024-01-15T16:32:46;0.80;1.00
296;DHT22;132;48.770;9.200;2024-01-15T16:35:32;0.80;1.00
296;DHT22;132;48.770;9.200;2024-01-15T16:38:19;0.80;1.00
296;DHT22;132;48.770;9.200;2024-01-15T16:41:06;0.80;1.00
296;DHT22;132;48.770;9.200;2024-01-15T16:43:53;0.80;1.00
296;DHT22;132;48.770;9.200;2024-01-15T16:46:40;0.80;1.00
296;DHT22;132;48.770;9.200;2024-01-15T16:49:27;0.70;1.00
296;DHT22;132;48.770;9.200;2024-01-15T16:52:14;1.70;1.00
296;DHT22;132;48.770;9.200;2024-01-15T16:55:01;0.70;1.00
296;DHT22;132;48.770;9.200;2024-01-15T16:57:49;0.70;1.00
296;DHT22;132;48.770;9.200;2024-01-15T17:00:35;0.70;1.00
296;DHT22;132;48.770;9.200;2024-01-15T17:03:22;1.60;1.00
296;DHT22;132;48.770;9.200;2024-01-15T17:06:09;0.70;1.00
296;DHT22;132;48.770;9.200;2024-01-15T17:08:55;0.70;1.00
296;DHT22;132;48.770;9.200;2024-01-15T17:11:43;0.70;1.00
296;DHT22;132;48.770;9.200;2024-01-15T17:14:31;0.70;1.00
296;DHT22;132;48.770;9.200;2024-01-15T17:17:17;0.60;1.00
296;DHT22;132;48.770;9.200;2024-01-15T17:20:06;0.70;1.00
296;DHT22;132;48.770;9.200;2024-01-15T17:22:52;0.50;1.00
296;DHT22;132;48.770;9.200;2024-01-15T17:25:39;0.70;1.00
296;DHT22;132;48.770;9.200;2024-01-15T17:28:26;0.70;1.00
296;DHT22;132;48.770;9.200;2024-01-15T17:31:12;0.70;1.00
296;DHT22;132;48.770;9.200;2024-01-15T17:34:00;0.70;1.00
296;DHT22;132;48.770;9.200;2024-01-15T17:36:46;0.70;1.00
296;DHT22;132;48.770;9.200;2024-01-15T17:39:33;0.70;1.00
296;DHT22;132;48.770;9.200;2024-01-15T17:42:20;0.60;1.00
296;DHT22;132;48.770;9.200;2024-01-15T17:45:06;0.60;1.00
296;DHT22;132;48.770;9.200;2024-01-15T17:47:53;0.60;1.00
296;DHT22;132;48.770;9.200;2024-01-15T17:50:40;0.60;1.00
296;DHT22;132;48.770;9.200;2024-01-15T17:53:27;0.60;1.00
296;DHT22;132;48.770;9.200;2024-01-15T17:56:15;0.60;1.00
296;DHT22;132;48.770;9.200;2024-01-15T17:59:02;1.40;1.00
296;DHT22;132;48.770;9.200;2024-01-15T18:01:48;0.60;1.00
296;DHT22;132;48.770;9.200;2024-01-15T18:04:35;0.60;1.00
296;DHT22;132;48.770;9.200;2024-01-15T18:07:22;0.60;1.00
296;DHT22;132;48.770;9.200;2024-01-15T18:10:09;0.60;1.00
296;DHT22;132;48.770;9.200;2024-01-15T18:12:56;0.60;1.00
296;DHT22;132;48.770;9.200;2024-01-15T18:15:43;0.60;1.00
296;DHT22;132;48.770;9.200;2024-01-15T18:18:30;0.50;1.00
296;DHT22;132;48.770;9.200;2024-01-15T18:21:23;0.90;1.00
296;DHT22;132;48.770;9.200;2024-01-15T18:24:09;0.40;1.00
296;DHT22;132;48.770;9.200;2024-01-15T18:26:56;0.40;1.00
296;DHT22;132;48.770;9.200;2024-01-15T18:29:43;0.30;1.00
296;DHT22;132;48.770;9.200;2024-01-15T18:32:30;0.90;1.00
296;DHT22;132;48.770;9.200;2024-01-15T18:35:19;0.30;1.00
296;DHT22;132;48.770;9.200;2024-01-15T18:38:05;0.20;1.00
296;DHT22;132;48.770;9.200;2024-01-15T18:40:52;0.20;1.00
296;DHT22;132;48.770;9.200;2024-01-15T18:43:39;0.10;1.00
296;DHT22;132;48.770;9.200;2024-01-15T18:46:25;0.20;1.00
296;DHT22;132;48.770;9.200;2024-01-15T18:49:13;0.10;1.00
296;DHT22;132;48.770;9.200;2024-01-15T18:51:59;0.10;1.00
296;DHT22;132;48.770;9.200;2024-01-15T18:54:46;0.20;1.00
296;DHT22;132;48.770;9.200;2024-01-15T18:57:32;0.80;1.00
296;DHT22;132;48.770;9.200;2024-01-15T19:00:19;0.10;1.00
296;DHT22;132;48.770;9.200;2024-01-15T19:03:07;0.20;1.00
296;DHT22;132;48.770;9.200;2024-01-15T19:05:54;0.20;1.00
296;DHT22;132;48.770;9.200;2024-01-15T19:08:40;0.20;1.00
296;DHT22;132;48.770;9.200;2024-01-15T19:11:27;0.20;1.00
296;DHT22;132;48.770;9.200;2024-01-15T19:14:14;0.20;1.00
296;DHT22;132;48.770;9.200;2024-01-15T19:17:00;0.20;1.00
296;DHT22;132;48.770;9.200;2024-01-15T19:19:48;0.20;1.00
296;DHT22;132;48.770;9.200;2024-01-15T19:22:37;0.30;1.00
296;DHT22;132;48.770;9.200;2024-01-15T19:25:24;1.20;1.00
296;DHT22;132;48.770;9.200;2024-01-15T19:28:10;0.30;1.00
296;DHT22;132;48.770;9.200;2024-01-15T19:30:57;0.30;1.00
296;DHT22;132;48.770;9.200;2024-01-15T19:33:44;0.30;1.00
296;DHT22;132;48.770;9.200;2024-01-15T19:36:30;0.30;1.00
296;DHT22;132;48.770;9.200;2024-01-15T19:39:18;0.30;1.00
296;DHT22;132;48.770;9.200;2024-01-15T19:42:06;0.80;1.00
296;DHT22;132;48.770;9.200;2024-01-15T19:44:52;0.40;1.00
296;DHT22;132;48.770;9.200;2024-01-15T19:47:39;0.40;1.00
296;DHT22;132;48.770;9.200;2024-01-15T19:50:26;0.40;1.00
296;DHT22;132;48.770;9.200;2024-01-15T19:53:12;0.40;1.00
296;DHT22;132;48.770;9.200;2024-01-15T19:55:59;0.40;1.00
296;DHT22;132;48.770;9.200;2024-01-15T19:58:45;0.40;1.00
296;DHT22;132;48.770;9.200;2024-01-15T20:01:32;0.40;1.00
296;DHT22;132;48.770;9.200;2024-01-15T20:04:19;0.40;1.00
296;DHT22;132;48.770;9.200;2024-01-15T20:07:06;0.40;1.00
296;DHT22;132;48.770;9.200;2024-01-15T20:09:54;0.40;1.00
296;DHT22;132;48.770;9.200;2024-01-15T20:12:41;0.50;1.00
296;DHT22;132;48.770;9.200;2024-01-15T20:15:27;0.50;1.00
296;DHT22;132;48.770;9.200;2024-01-15T20:18:15;0.50;1.00
296;DHT22;132;48.770;9.200;2024-01-15T20:21:02;0.50;1.00
296;DHT22;132;48.770;9.200;2024-01-15T20:23:49;0.40;1.00
296;DHT22;132;48.770;9.200;2024-01-15T20:26:36;0.40;1.00
296;DHT22;132;48.770;9.200;2024-01-15T20:29:22;0.40;1.00
296;DHT22;132;48.770;9.200;2024-01-15T20:32:09;0.50;1.00
296;DHT22;132;48.770;9.200;2024-01-15T20:34:56;0.50;1.00
296;DHT22;132;48.770;9.200;2024-01-15T20:37:42;0.40;1.00
296;DHT22;132;48.770;9.200;2024-01-15T20:40:29;0.40;1.00
296;DHT22;132;48.770;9.200;2024-01-15T20:43:16;0.40;1.00
296;DHT22;132;48.770;9.200;2024-01-15T20:46:03;0.40;1.00
296;DHT22;132;48.770;9.200;2024-01-15T20:48:49;0.40;1.00
296;DHT22;132;48.770;9.200;2024-01-15T20:51:36;0.40;1.00
296;DHT22;132;48.770;9.200;2024-01-15T20:54:23;0.40;1.00